Time;durP1;ratioP1;P1;durP2;ratioP2;P2;SDS_P1;SDS_P2;PMS_P1;PMS_P2;Temp;Humidity;BMP_temperature;BMP_pressure;BME280_temperature;BME280_humidity;BME280_pressure;Samples;Min_cycle;Max_cycle;Signal;HPM_P1;HPM_P2
2021/01/17 00:00:23;;;;;;;58.22;29.95;;;;;;;0.11;100.00;101572.59;4806262;29;20051;-84
2021/01/17 00:02:50;;;;;;;58.05;29.48;;;;;;;0.12;100.00;101574.34;4806809;29;20103;-84
2021/01/17 00:05:25;;;;;;;64.90;32.38;;;;;;;0.14;100.00;101588.22;4815773;29;20051;-84
2021/01/17 00:07:51;;;;;;;49.58;25.70;;;;;;;0.18;100.00;101578.72;4808268;29;20034;-84
2021/01/17 00:10:21;;;;;;;59.28;28.98;;;;;;;0.08;100.00;101561.28;4827329;29;20041;-84
2021/01/17 00:12:48;;;;;;;51.75;27.45;;;;;;;0.16;100.00;101586.53;4807810;29;20041;-85
2021/01/17 00:15:17;;;;;;;56.25;29.08;;;;;;;0.07;100.00;101564.75;4813976;29;20030;-85
2021/01/17 00:17:44;;;;;;;54.17;28.55;;;;;;;0.15;100.00;101570.88;4813007;29;20038;-85
2021/01/17 00:20:12;;;;;;;55.25;28.50;;;;;;;0.17;100.00;101598.66;4816803;29;20034;-85
2021/01/17 00:22:38;;;;;;;57.45;29.88;;;;;;;0.19;100.00;101596.06;4829489;29;20034;-85
2021/01/17 00:25:06;;;;;;;54.33;28.70;;;;;;;0.29;100.00;101589.22;4813524;29;20059;-84
2021/01/17 00:27:34;;;;;;;49.25;27.10;;;;;;;0.18;100.00;101558.78;4804740;29;20114;-84
2021/01/17 00:29:59;;;;;;;50.90;27.48;;;;;;;0.26;100.00;101579.69;4816217;29;20547;-84
2021/01/17 00:32:24;;;;;;;53.53;28.73;;;;;;;0.25;100.00;101567.53;4809544;29;20203;-84
2021/01/17 00:34:50;;;;;;;54.60;29.45;;;;;;;0.23;100.00;101567.50;4829900;29;20043;-84
2021/01/17 00:37:16;;;;;;;51.05;27.33;;;;;;;0.15;100.00;101558.78;4824157;29;20062;-84
2021/01/17 00:39:42;;;;;;;52.22;27.23;;;;;;;0.12;100.00;101561.34;4831313;29;20030;-85
2021/01/17 00:42:11;;;;;;;48.03;26.05;;;;;;;0.20;100.00;101532.81;4810470;29;20030;-85
2021/01/17 00:44:37;;;;;;;52.67;27.10;;;;;;;0.15;100.00;101543.19;4813876;29;20121;-85
2021/01/17 00:47:03;;;;;;;48.53;26.42;;;;;;;0.23;100.00;101554.50;4813650;29;20055;-85
2021/01/17 00:49:28;;;;;;;51.65;28.63;;;;;;;0.26;100.00;101556.28;4808290;29;20040;-84
2021/01/17 00:51:54;;;;;;;53.50;28.33;;;;;;;0.12;100.00;101543.16;4819957;29;20038;-84
2021/01/17 00:54:19;;;;;;;56.00;28.25;;;;;;;0.15;100.00;101548.38;4826445;29;20086;-85
2021/01/17 00:56:44;;;;;;;51.85;28.33;;;;;;;0.20;100.00;101559.69;4809354;29;20037;-84
2021/01/17 00:59:10;;;;;;;60.08;27.52;;;;;;;0.21;100.00;101555.38;4820967;29;20084;-85
2021/01/17 01:01:40;;;;;;;54.65;28.38;;;;;;;0.29;100.00;101560.63;4809263;29;20042;-85
2021/01/17 01:04:06;;;;;;;55.83;29.50;;;;;;;0.18;100.00;101540.59;4807698;29;20035;-84
2021/01/17 01:06:32;;;;;;;59.03;28.73;;;;;;;0.23;100.00;101551.91;4811567;29;20034;-84
2021/01/17 01:08:57;;;;;;;47.15;27.20;;;;;;;0.27;100.00;101554.56;4810282;29;20165;-84
2021/01/17 01:11:23;;;;;;;54.03;28.00;;;;;;;0.23;100.00;101549.31;4807377;29;20039;-84
2021/01/17 01:13:51;;;;;;;52.88;27.98;;;;;;;0.20;100.00;101546.72;4805324;29;20026;-84
2021/01/17 01:16:16;;;;;;;54.15;30.20;;;;;;;0.20;100.00;101549.31;4823166;29;20045;-84
2021/01/17 01:18:43;;;;;;;46.80;26.60;;;;;;;0.12;100.00;101530.16;4805189;29;20137;-84
2021/01/17 01:21:09;;;;;;;48.10;28.33;;;;;;;0.25;100.00;101549.31;4819206;29;20163;-84
2021/01/17 01:23:35;;;;;;;49.88;27.05;;;;;;;0.33;100.00;101546.81;4820222;29;20113;-84
2021/01/17 01:26:00;;;;;;;49.15;26.70;;;;;;;0.22;100.00;101528.50;4817793;29;20026;-83
2021/01/17 01:28:26;;;;;;;50.30;28.13;;;;;;;0.18;100.00;101517.19;4830525;29;20038;-85
2021/01/17 01:30:55;;;;;;;45.53;26.92;;;;;;;0.33;100.00;101545.06;4809160;29;20030;-85
2021/01/17 01:33:22;;;;;;;48.78;25.60;;;;;;;0.37;100.00;101538.19;4805508;29;20045;-83
2021/01/17 01:35:59;;;;;;;50.22;26.88;;;;;;;0.27;100.00;101531.16;4823192;29;20658;-83
2021/01/17 01:38:24;;;;;;;49.00;26.85;;;;;;;0.19;100.00;101518.94;4809260;29;20768;-84
2021/01/17 01:40:54;;;;;;;49.40;26.75;;;;;;;0.15;100.00;101512.00;4808166;29;20034;-83
2021/01/17 01:43:21;;;;;;;50.72;28.63;;;;;;;0.35;100.00;101538.16;4803173;29;20034;-83
2021/01/17 01:45:47;;;;;;;56.72;27.25;;;;;;;0.29;100.00;101530.28;4801441;29;20027;-83
2021/01/17 01:48:13;;;;;;;56.33;28.23;;;;;;;0.32;100.00;101521.66;4824704;29;20026;-84
2021/01/17 01:50:39;;;;;;;50.95;27.77;;;;;;;0.41;100.00;101543.41;4816369;29;20034;-84
2021/01/17 01:53:09;;;;;;;54.35;27.95;;;;;;;0.20;100.00;101515.50;4818280;29;20060;-84
2021/01/17 01:55:41;;;;;;;51.72;27.30;;;;;;;0.43;100.00;101541.69;4804632;29;20018;-84
2021/01/17 01:58:08;;;;;;;57.90;29.45;;;;;;;0.41;100.00;101553.81;4816898;29;20034;-83
2021/01/17 02:00:33;;;;;;;54.88;29.77;;;;;;;0.47;100.00;101543.47;4816600;29;20106;-83
2021/01/17 02:02:59;;;;;;;53.70;28.48;;;;;;;0.48;100.00;101545.19;4826147;29;20045;-83
2021/01/17 02:05:42;;;;;;;53.15;28.13;;;;;;;0.50;100.00;101537.41;4810089;29;20034;-83
2021/01/17 02:08:42;;;;;;;58.30;27.90;;;;;;;0.51;100.00;101541.75;4812342;29;20429;-83
2021/01/17 02:11:24;;;;;;;57.55;28.85;;;;;;;0.44;100.00;101529.56;4813411;29;20102;-84
2021/01/17 02:14:06;;;;;;;59.20;30.25;;;;;;;0.35;100.00;101513.88;4807882;29;20056;-85
2021/01/17 02:16:34;;;;;;;61.88;29.80;;;;;;;0.39;100.00;101510.44;4809998;29;20103;-84
2021/01/17 02:19:00;;;;;;;60.72;30.05;;;;;;;0.51;100.00;101540.03;4827480;29;20034;-84
2021/01/17 02:21:27;;;;;;;54.88;29.00;;;;;;;0.59;100.00;101537.47;4811216;29;20494;-84
2021/01/17 02:24:03;;;;;;;59.17;31.05;;;;;;;0.58;100.00;101530.53;4828185;29;20046;-84
2021/01/17 02:26:28;;;;;;;55.53;29.30;;;;;;;0.45;100.00;101503.56;4819074;29;20823;-84
2021/01/17 02:28:55;;;;;;;60.47;29.70;;;;;;;0.61;100.00;101520.16;4811696;29;20102;-84
2021/01/17 02:31:21;;;;;;;57.95;30.17;;;;;;;0.66;100.00;101518.47;4826792;29;20395;-84
2021/01/17 02:33:48;;;;;;;59.00;30.63;;;;;;;0.68;100.00;101529.75;4804978;29;20030;-84
2021/01/17 02:36:48;;;;;;;59.25;30.38;;;;;;;0.66;100.00;101531.47;4813801;29;20037;-85
2021/01/17 02:39:20;;;;;;;58.42;30.48;;;;;;;0.58;100.00;101512.31;4811796;29;20030;-84
2021/01/17 02:41:56;;;;;;;62.17;31.20;;;;;;;0.81;100.00;101525.50;4812784;29;20118;-85
2021/01/17 02:44:23;;;;;;;55.90;29.95;;;;;;;0.63;100.00;101520.16;4829673;29;20068;-85
2021/01/17 02:46:49;;;;;;;55.67;29.40;;;;;;;0.83;100.00;101525.50;4815196;29;20034;-84
2021/01/17 02:49:14;;;;;;;61.42;30.52;;;;;;;0.72;100.00;101525.44;4829007;29;20118;-84
2021/01/17 02:51:39;;;;;;;62.50;30.85;;;;;;;0.71;100.00;101513.28;4817145;29;20809;-84
2021/01/17 02:54:13;;;;;;;59.35;31.27;;;;;;;0.71;100.00;101493.34;4823567;29;20038;-85
2021/01/17 02:56:49;;;;;;;54.80;30.42;;;;;;;0.93;100.00;101519.50;4803070;29;20030;-84
2021/01/17 02:59:18;;;;;;;;;;;;;;;0.92;100.00;101518.63;4809008;29;20425;-84
2021/01/17 03:01:53;;;;;;;66.50;31.67;;;;;;;0.94;100.00;101521.22;4815554;29;20080;-84
2021/01/17 03:04:40;;;;;;;57.78;31.02;;;;;;;0.87;100.00;101503.84;4794622;29;20106;-85
2021/01/17 03:07:09;;;;;;;64.82;30.15;;;;;;;0.87;100.00;101520.34;4799207;29;20031;-85
2021/01/17 03:09:35;;;;;;;58.80;30.13;;;;;;;0.88;100.00;101502.97;4797170;29;20041;-84
2021/01/17 03:12:05;;;;;;;60.67;31.58;;;;;;;1.08;100.00;101516.09;4810163;29;20856;-84
2021/01/17 03:14:38;;;;;;;60.65;30.75;;;;;;;1.13;100.00;101520.47;4809299;29;20039;-84
2021/01/17 03:17:05;;;;;;;56.70;29.80;;;;;;;1.09;100.00;101517.84;4812533;29;20361;-85
2021/01/17 03:19:30;;;;;;;67.15;30.42;;;;;;;1.02;100.00;101519.56;4802467;29;20037;-85
2021/01/17 03:21:56;;;;;;;68.25;31.15;;;;;;;0.94;100.00;101498.66;4794235;29;20034;-84
2021/01/17 03:24:25;;;;;;;63.00;32.03;;;;;;;1.04;100.00;101505.66;4810755;29;20027;-84
2021/01/17 03:26:51;;;;;;;64.47;31.02;;;;;;;1.15;100.00;101516.13;4794369;29;20753;-85
2021/01/17 03:29:16;;;;;;;55.08;29.23;;;;;;;1.19;100.00;101507.47;4793186;29;20026;-84
2021/01/17 03:31:42;;;;;;;55.85;29.10;;;;;;;1.15;100.00;101504.84;4791604;29;20168;-84
2021/01/17 03:34:07;;;;;;;55.00;29.50;;;;;;;1.06;100.00;101492.69;4813408;29;20038;-84
2021/01/17 03:36:33;;;;;;;55.65;30.42;;;;;;;1.13;100.00;101501.38;4812941;29;20076;-84
2021/01/17 03:39:05;;;;;;;57.05;28.85;;;;;;;1.21;100.00;101521.41;4789215;29;20034;-84
2021/01/17 03:41:30;;;;;;;63.75;31.45;;;;;;;1.06;100.00;101497.03;4809734;29;20042;-84
2021/01/17 03:43:56;;;;;;;60.50;31.70;;;;;;;1.14;100.00;101524.81;4796334;29;20041;-84
2021/01/17 03:46:21;;;;;;;54.72;29.90;;;;;;;1.33;100.00;101527.50;4790318;29;20058;-84
2021/01/17 03:48:46;;;;;;;55.03;28.67;;;;;;;1.44;100.00;101525.81;4797787;29;20034;-84
2021/01/17 03:51:12;;;;;;;56.03;31.77;;;;;;;1.33;100.00;101528.38;4809286;29;20035;-85
2021/01/17 03:53:37;;;;;;;62.55;30.65;;;;;;;1.21;100.00;101510.97;4793481;29;20033;-83
2021/01/17 03:56:05;;;;;;;57.38;30.35;;;;;;;1.32;100.00;101517.97;4809632;29;20059;-84
2021/01/17 03:58:30;;;;;;;62.28;29.10;;;;;;;1.37;100.00;101539.69;4791029;29;20053;-83
2021/01/17 04:00:56;;;;;;;59.17;31.60;;;;;;;1.35;100.00;101536.19;4792255;29;20020;-84
2021/01/17 04:03:21;;;;;;;60.63;30.13;;;;;;;1.38;100.00;101529.28;4796331;29;20022;-83
2021/01/17 04:05:46;;;;;;;57.70;29.88;;;;;;;1.51;100.00;101536.28;4787349;29;20406;-85
2021/01/17 04:08:12;;;;;;;58.92;27.80;;;;;;;1.53;100.00;101534.53;4791673;29;20035;-85
2021/01/17 04:10:37;;;;;;;55.60;29.20;;;;;;;1.42;100.00;101531.03;4807732;29;20035;-85
2021/01/17 04:13:09;;;;;;;56.00;30.02;;;;;;;1.54;100.00;101527.59;4789729;29;20484;-85
2021/01/17 04:15:40;;;;;;;58.95;30.88;;;;;;;1.47;100.00;101523.22;4795423;29;20123;-86
2021/01/17 04:18:06;;;;;;;65.25;30.20;;;;;;;1.51;100.00;101525.00;4792718;29;20824;-85
2021/01/17 04:20:31;;;;;;;67.28;30.35;;;;;;;1.49;100.00;101530.19;4800174;29;20054;-85
2021/01/17 04:23:05;;;;;;;57.92;27.80;;;;;;;1.36;100.00;101536.22;4811063;29;20055;-85
2021/01/17 04:25:31;;;;;;;62.95;30.63;;;;;;;1.19;100.00;101541.31;4807443;29;20437;-85
2021/01/17 04:27:57;;;;;;;86.65;31.38;;;;;;;0.96;100.00;101520.41;4793772;29;20122;-85
2021/01/17 04:30:26;;;;;;;64.78;29.05;;;;;;;1.02;100.00;101523.03;4793533;29;20039;-85
2021/01/17 04:32:55;;;;;;;68.00;30.52;;;;;;;1.09;100.00;101530.84;4792919;29;20035;-85
2021/01/17 04:35:21;;;;;;;58.10;31.20;;;;;;;1.04;100.00;101507.41;4797122;29;20090;-85
2021/01/17 04:37:51;;;;;;;67.10;30.85;;;;;;;1.01;100.00;101518.69;4790027;29;20071;-85
2021/01/17 04:40:17;;;;;;;89.90;33.03;;;;;;;0.96;100.00;101533.41;4808986;29;20034;-85
2021/01/17 04:43:08;;;;;;;70.95;32.03;;;;;;;0.98;100.00;101538.63;4807805;29;20117;-85
2021/01/17 04:45:35;;;;;;;72.20;30.42;;;;;;;1.16;100.00;101545.66;4791111;29;20399;-82
2021/01/17 04:48:04;;;;;;;64.68;29.35;;;;;;;1.16;100.00;101535.25;4809987;29;20039;-82
2021/01/17 04:50:32;;;;;;;63.70;29.88;;;;;;;0.93;100.00;101537.72;4807723;29;20040;-83
2021/01/17 04:53:09;;;;;;;59.38;27.67;;;;;;;0.93;100.00;101546.38;4791882;29;20106;-82
2021/01/17 04:55:35;;;;;;;58.00;26.80;;;;;;;0.98;100.00;101543.81;4791670;29;20034;-84
2021/01/17 04:58:17;;;;;;;61.20;27.88;;;;;;;1.07;100.00;101540.41;4790526;29;20031;-83
2021/01/17 05:00:54;;;;;;;59.35;28.50;;;;;;;1.01;100.00;101538.66;4792153;29;20042;-83
2021/01/17 05:04:04;;;;;;;63.88;28.17;;;;;;;0.88;100.00;101549.81;4806553;29;20110;-83
2021/01/17 05:06:38;;;;;;;49.72;25.60;;;;;;;0.92;100.00;101549.84;4791793;29;20034;-83
2021/01/17 05:09:05;;;;;;;57.53;25.83;;;;;;;1.06;100.00;101542.16;4796145;29;20051;-83
2021/01/17 05:11:39;;;;;;;74.50;26.92;;;;;;;1.08;100.00;101540.41;4789359;29;20485;-83
2021/01/17 05:14:11;;;;;;;74.60;30.10;;;;;;;1.22;100.00;101543.97;4797835;29;20023;-83
2021/01/17 05:16:46;;;;;;;60.75;28.20;;;;;;;1.20;100.00;101548.28;4787645;29;20035;-84
2021/01/17 05:19:15;;;;;;;73.28;26.05;;;;;;;1.23;100.00;101548.31;4812712;29;20068;-84
2021/01/17 05:21:46;;;;;;;65.70;27.88;;;;;;;1.14;100.00;101547.38;4812909;29;20050;-83
2021/01/17 05:24:13;;;;;;;66.75;27.88;;;;;;;1.08;100.00;101544.75;4799987;29;20472;-83
2021/01/17 05:26:42;;;;;;;71.53;27.85;;;;;;;1.19;100.00;101538.72;4796712;29;20555;-84
2021/01/17 05:29:08;;;;;;;69.53;25.67;;;;;;;1.22;100.00;101543.09;4800764;29;20054;-84
2021/01/17 05:31:34;;;;;;;59.78;22.33;;;;;;;1.40;100.00;101550.97;4796239;29;20042;-84
2021/01/17 05:34:00;;;;;;;61.13;24.10;;;;;;;1.41;100.00;101544.06;4798208;29;20034;-84
2021/01/17 05:36:25;;;;;;;63.25;20.58;;;;;;;1.43;100.00;101564.03;4814341;29;20035;-84
2021/01/17 05:39:15;;;;;;;58.83;19.67;;;;;;;1.92;100.00;101565.94;4817894;29;20042;-84
2021/01/17 05:41:40;;;;;;;52.40;17.73;;;;;;;1.89;100.00;101563.31;4795009;29;20083;-83
2021/01/17 05:44:05;;;;;;;45.70;16.08;;;;;;;2.13;100.00;101566.00;4811918;29;20038;-83
2021/01/17 05:46:31;;;;;;;47.00;17.40;;;;;;;2.03;100.00;101559.88;4812493;29;20046;-83
2021/01/17 05:49:10;;;;;;;48.72;15.82;;;;;;;2.01;100.00;101565.97;4793281;29;20027;-83
2021/01/17 05:51:36;;;;;;;43.10;13.70;;;;;;;2.18;100.00;101566.88;4803040;29;20039;-83
2021/01/17 05:54:08;;;;;;;41.45;13.75;;;;;;;2.16;100.00;101567.72;4814296;29;20087;-84
2021/01/17 05:56:35;;;;;;;43.10;13.68;;;;;;;2.12;100.00;101569.47;4819206;29;20027;-84
2021/01/17 05:59:01;;;;;;;46.10;14.32;;;;;;;2.22;100.00;101571.22;4809301;29;20042;-83
2021/01/17 06:01:28;;;;;;;50.38;13.68;;;;;;;2.14;100.00;101559.91;4797579;29;20034;-84
2021/01/17 06:03:55;;;;;;;45.20;13.27;;;;;;;2.05;100.00;101575.53;4791596;29;20046;-85
2021/01/17 06:06:28;;;;;;;44.97;15.75;;;;;;;1.92;100.00;101581.59;4794966;29;20127;-85
2021/01/17 06:08:56;;;;;;;39.80;11.88;;;;;;;2.16;100.00;101581.66;4794609;29;20038;-84
2021/01/17 06:11:22;;;;;;;55.42;12.90;;;;;;;2.22;100.00;101581.66;4789758;29;20059;-83
2021/01/17 06:13:59;;;;;;;47.88;9.73;;;;;;;2.28;100.00;101593.84;4795481;29;20042;-84
2021/01/17 06:16:32;;;;;;;42.05;9.50;;;;;;;2.40;100.00;101585.16;4812605;29;20082;-83
2021/01/17 06:19:02;;;;;;;36.13;9.93;;;;;;;2.26;100.00;101580.81;4812737;29;20105;-83
2021/01/17 06:21:29;;;;;;;43.80;9.10;;;;;;;2.40;100.00;101580.78;4789479;29;20042;-84
2021/01/17 06:24:03;;;;;;;43.03;8.30;;;;;;;2.46;100.00;101592.97;4804823;29;20039;-84
2021/01/17 06:26:33;;;;;;;35.83;8.90;;;;;;;2.48;100.00;101599.94;4792172;29;20039;-84
2021/01/17 06:29:00;;;;;;;37.03;6.25;;;;;;;2.58;100.00;101591.25;4805744;29;20030;-84
2021/01/17 06:31:30;;;;;;;35.25;6.15;;;;;;;2.84;100.00;101593.00;4792567;29;20031;-85
2021/01/17 06:34:08;;;;;;;35.30;6.53;;;;;;;2.89;100.00;101603.44;4807768;29;20571;-83
2021/01/17 06:36:38;;;;;;;29.10;6.05;;;;;;;2.82;100.00;101606.06;4792318;29;20042;-83
2021/01/17 06:39:18;;;;;;;42.33;6.18;;;;;;;2.76;100.00;101605.16;4808098;29;20066;-84
2021/01/17 06:41:43;;;;;;;41.45;7.07;;;;;;;2.68;100.00;101612.16;4812930;29;20534;-84
2021/01/17 06:44:13;;;;;;;35.28;6.40;;;;;;;2.71;100.00;101614.72;4799197;29;20069;-84
2021/01/17 06:46:40;;;;;;;33.42;6.32;;;;;;;2.97;100.00;101615.63;4798372;29;20121;-84
2021/01/17 06:49:47;;;;;;;37.53;6.47;;;;;;;3.04;100.00;101608.63;4793203;29;20038;-84
2021/01/17 06:52:19;;;;;;;;;;;;;;;3.23;100.00;101618.19;4728924;30;20979;-85
2021/01/17 06:54:46;;;;;;;35.67;7.05;;;;;;;3.22;100.00;101612.97;4729589;30;19926;-84
2021/01/17 06:57:12;;;;;;;32.17;5.35;;;;;;;3.19;100.00;101618.19;4740540;30;20413;-84
2021/01/17 06:59:40;;;;;;;31.17;4.85;;;;;;;3.03;100.00;101623.44;4712136;30;20152;-84
2021/01/17 07:02:24;;;;;;;34.85;5.95;;;;;;;3.09;100.00;101628.66;4716989;30;20041;-85
2021/01/17 07:04:52;;;;;;;30.70;6.93;;;;;;;3.12;100.00;101630.41;4711917;30;20040;-84
2021/01/17 07:07:51;;;;;;;34.20;5.45;;;;;;;3.12;100.00;101638.25;4732333;30;20075;-85
2021/01/17 07:11:01;;;;;;;42.00;5.30;;;;;;;3.21;100.00;101643.44;4722980;30;20048;-84
2021/01/17 07:13:33;;;;;;;38.38;4.82;;;;;;;3.34;100.00;101652.13;4731858;30;20040;-84
2021/01/17 07:16:02;;;;;;;39.72;5.38;;;;;;;3.46;100.00;101641.66;4716804;30;20057;-85
2021/01/17 07:18:36;;;;;;;44.75;5.00;;;;;;;3.70;100.00;101639.84;4727002;30;20123;-84
2021/01/17 07:21:03;;;;;;;38.50;5.07;;;;;;;3.72;100.00;101646.81;4728509;30;20588;-84
2021/01/17 07:23:29;;;;;;;29.17;4.90;;;;;;;3.59;100.00;101637.25;4727682;30;20048;-84
2021/01/17 07:26:00;;;;;;;46.85;6.38;;;;;;;3.75;100.00;101657.25;4730198;30;20410;-84
2021/01/17 07:28:33;;;;;;;31.63;7.13;;;;;;;3.75;100.00;101662.47;4748481;29;20454;-85
2021/01/17 07:30:58;;;;;;;46.55;5.55;;;;;;;3.81;100.00;101669.44;4803319;29;20035;-84
2021/01/17 07:33:28;;;;;;;34.05;5.50;;;;;;;3.75;100.00;101652.03;4807616;29;20037;-84
2021/01/17 07:35:58;;;;;;;35.17;6.03;;;;;;;3.93;100.00;101673.78;4816987;29;20086;-84
2021/01/17 07:38:27;;;;;;;34.35;7.10;;;;;;;3.99;100.00;101686.81;4805724;29;20476;-84
2021/01/17 07:41:04;;;;;;;33.88;5.85;;;;;;;3.87;100.00;101670.31;4804876;29;20077;-85
2021/01/17 07:43:43;;;;;;;33.40;4.10;;;;;;;3.92;100.00;101692.97;4803715;29;20125;-84
2021/01/17 07:46:14;;;;;;;36.50;5.82;;;;;;;3.84;100.00;101690.34;4807452;29;20034;-84
2021/01/17 07:48:40;;;;;;;35.90;5.57;;;;;;;3.90;100.00;101696.44;4800568;29;20739;-84
2021/01/17 07:51:11;;;;;;;31.48;5.15;;;;;;;3.81;100.00;101699.06;4803478;29;20461;-84
2021/01/17 07:53:39;;;;;;;34.25;5.57;;;;;;;3.73;100.00;101710.44;4808217;29;20031;-84
2021/01/17 07:56:27;;;;;;;35.55;4.97;;;;;;;3.76;100.00;101708.66;4802777;29;20374;-84
2021/01/17 07:58:58;;;;;;;32.20;4.70;;;;;;;3.74;100.00;101706.94;4803092;29;20059;-85
2021/01/17 08:01:38;;;;;;;40.67;5.25;;;;;;;3.71;100.00;101722.63;4824811;29;20038;-85
2021/01/17 08:04:42;;;;;;;32.25;5.97;;;;;;;3.82;100.00;101721.75;4811795;29;20049;-85
2021/01/17 08:07:29;;;;;;;41.22;7.90;;;;;;;3.64;100.00;101724.41;4816168;29;20069;-85
2021/01/17 08:09:55;;;;;;;38.15;4.75;;;;;;;3.73;100.00;101720.91;4813133;29;20048;-85
2021/01/17 08:12:29;;;;;;;35.85;5.72;;;;;;;3.94;100.00;101723.44;4812440;29;20460;-84
2021/01/17 08:15:18;;;;;;;38.92;6.85;;;;;;;4.08;100.00;101736.50;4809926;29;20054;-84
2021/01/17 08:17:44;;;;;;;29.75;4.57;;;;;;;4.00;100.00;101726.03;4827554;29;20515;-84
2021/01/17 08:20:20;;;;;;;38.40;4.80;;;;;;;4.12;100.00;101740.84;4805517;29;20038;-85
2021/01/17 08:22:46;;;;;;;38.13;5.57;;;;;;;4.20;100.00;101738.19;4817762;29;20392;-84
2021/01/17 08:25:13;;;;;;;27.52;4.32;;;;;;;4.21;100.00;101737.31;4811137;29;20106;-85
2021/01/17 08:27:44;;;;;;;27.10;7.70;;;;;;;4.14;100.00;101737.34;4808716;29;20030;-85
2021/01/17 08:30:21;;;;;;;32.90;5.43;;;;;;;4.18;100.00;101745.19;4826906;29;20706;-84
2021/01/17 08:32:49;;;;;;;23.08;4.35;;;;;;;4.25;100.00;101749.50;4822404;29;20034;-84
2021/01/17 08:35:23;;;;;;;26.73;4.10;;;;;;;4.27;100.00;101755.63;4819851;29;20076;-84
2021/01/17 08:37:48;;;;;;;37.60;6.15;;;;;;;4.36;100.00;101763.41;4807705;29;20038;-84
2021/01/17 08:40:19;;;;;;;28.33;4.87;;;;;;;4.35;100.00;101762.53;4827918;29;20031;-84
2021/01/17 08:46:45;;;;;;;36.97;6.25;;;;;;;4.20;100.00;101746.91;4744187;30;20072;-84
2021/01/17 08:49:10;;;;;;;23.70;5.00;;;;;;;4.31;100.00;101766.03;4741605;30;20470;-84
2021/01/17 08:51:36;;;;;;;39.53;6.28;;;;;;;4.45;100.00;101786.06;4735879;30;20048;-84
2021/01/17 08:54:21;;;;;;;23.67;4.80;;;;;;;4.43;100.00;101772.13;4755659;30;20047;-84
2021/01/17 08:56:46;;;;;;;37.70;7.28;;;;;;;4.49;100.00;101785.19;4749615;30;20044;-84
2021/01/17 08:59:31;;;;;;;33.63;5.32;;;;;;;4.51;100.00;101775.56;4757271;29;20085;-84
2021/01/17 09:01:58;;;;;;;27.37;4.90;;;;;;;4.59;100.00;101790.38;4786227;29;20035;-84
2021/01/17 09:04:26;;;;;;;30.90;5.45;;;;;;;4.57;100.00;101791.28;4762463;30;20117;-84
2021/01/17 09:06:52;;;;;;;32.42;4.50;;;;;;;4.46;100.00;101779.94;4774267;29;20061;-84
2021/01/17 09:09:19;;;;;;;24.10;4.63;;;;;;;4.54;100.00;101796.50;4772554;30;20043;-85
2021/01/17 09:11:44;;;;;;;36.60;5.82;;;;;;;4.53;100.00;101808.72;4786556;30;20048;-85
2021/01/17 09:14:42;;;;;;;;;;;;;;;;;;;;;
2021/01/17 09:17:25;;;;;;;35.05;4.75;;;;;;;4.60;100.00;101794.72;4800496;29;20042;-85
2021/01/17 09:19:51;;;;;;;25.73;4.55;;;;;;;4.84;100.00;101829.53;4802814;29;20169;-84
2021/01/17 09:22:20;;;;;;;27.73;4.35;;;;;;;4.93;100.00;101830.38;4806769;29;20223;-84
2021/01/17 09:24:48;;;;;;;35.50;5.53;;;;;;;4.80;100.00;101801.63;4823375;29;20095;-84
2021/01/17 09:27:49;;;;;;;;;;;;;;;;;;;;;
2021/01/17 09:30:24;;;;;;;36.13;6.03;;;;;;;4.88;100.00;101812.94;4835396;29;20026;-85
2021/01/17 09:32:51;;;;;;;30.67;5.85;;;;;;;5.03;100.00;101835.56;4800943;29;20111;-85
2021/01/17 09:35:17;;;;;;;33.40;5.00;;;;;;;5.12;100.00;101838.09;4816538;29;20041;-85
2021/01/17 09:37:50;;;;;;;33.65;5.93;;;;;;;5.08;100.00;101844.25;4810384;29;20038;-85
2021/01/17 09:40:16;;;;;;;37.05;4.72;;;;;;;5.16;100.00;101860.78;4828942;29;20026;-84
2021/01/17 09:42:43;;;;;;;35.60;7.60;;;;;;;5.11;100.00;101868.69;4811147;29;20376;-84
2021/01/17 09:45:08;;;;;;;28.02;5.80;;;;;;;5.10;100.00;101863.44;4824612;29;20516;-84
2021/01/17 09:47:38;;;;;;;31.48;5.25;;;;;;;5.05;100.00;101857.38;4822245;29;20062;-84
2021/01/17 09:50:34;;;;;;;31.67;6.18;;;;;;;5.04;100.00;101866.97;4819579;29;20050;-85
2021/01/17 09:53:07;;;;;;;40.37;6.97;;;;;;;5.09;100.00;101882.69;4806628;29;20030;-85
2021/01/17 09:55:56;;;;;;;40.95;7.20;;;;;;;5.02;100.00;101860.00;4807420;29;20035;-84
2021/01/17 10:01:59;;;;;;;29.33;4.95;;;;;;;4.96;100.00;101863.53;4751463;30;20048;-84
2021/01/17 10:04:29;;;;;;;26.67;5.03;;;;;;;5.04;100.00;101877.47;4749529;30;20114;-85
2021/01/17 10:07:04;;;;;;;28.33;4.82;;;;;;;5.75;100.00;101898.84;4735475;30;20048;-85
2021/01/17 10:09:32;;;;;;;34.60;5.50;;;;;;;6.05;100.00;101889.91;4745362;30;20047;-84
2021/01/17 10:12:00;;;;;;;29.05;6.40;;;;;;;5.54;100.00;101886.78;4748253;30;20040;-84
2021/01/17 10:14:28;;;;;;;29.88;5.35;;;;;;;5.46;100.00;101906.91;4749943;30;20067;-84
2021/01/17 10:16:54;;;;;;;35.40;5.82;;;;;;;5.37;100.00;101910.50;4732848;30;20114;-84
2021/01/17 10:19:28;;;;;;;29.92;5.97;;;;;;;5.37;100.00;101888.63;4742978;30;20066;-84
2021/01/17 10:21:54;;;;;;;42.05;5.55;;;;;;;6.92;100.00;101917.84;4741655;30;20899;-84
2021/01/17 10:24:23;;;;;;;30.60;5.90;;;;;;;7.53;100.00;101903.91;4748230;30;20040;-84
2021/01/17 10:26:53;;;;;;;25.15;4.38;;;;;;;6.74;100.00;101894.44;4740359;30;20070;-84
2021/01/17 10:29:39;;;;;;;30.88;5.28;;;;;;;6.34;100.00;101892.25;4753718;30;20079;-84
2021/01/17 10:32:09;;;;;;;30.67;4.10;;;;;;;6.26;100.00;101919.44;4738631;30;20045;-84
2021/01/17 10:35:19;;;;;;;36.10;4.00;;;;;;;7.31;100.00;101891.06;4766883;30;20047;-84
2021/01/17 10:37:57;;;;;;;27.50;3.47;;;;;;;6.84;100.00;101903.09;4752806;29;20130;-84
2021/01/17 10:40:30;;;;;;;25.50;4.47;;;;;;;6.62;100.00;101895.44;4837838;29;20098;-84
2021/01/17 10:43:00;;;;;;;25.33;3.92;;;;;;;6.54;100.00;101934.06;4806459;29;20503;-84
2021/01/17 10:45:27;;;;;;;20.20;4.00;;;;;;;6.38;100.00;101933.34;4810178;29;20444;-84
2021/01/17 10:48:12;;;;;;;20.67;6.10;;;;;;;6.45;100.00;101937.63;4806919;29;20726;-84
2021/01/17 10:50:54;;;;;;;24.92;4.88;;;;;;;6.31;100.00;101917.66;4805361;29;20046;-85
2021/01/17 10:53:40;;;;;;;32.00;4.43;;;;;;;6.50;100.00;101942.84;4813934;29;20049;-85
2021/01/17 10:56:12;;;;;;;19.73;3.80;;;;;;;6.61;100.00;101935.72;4816320;29;20104;-85
2021/01/17 10:58:44;;;;;;;26.20;3.38;;;;;;;6.57;100.00;101906.88;4806252;29;20042;-84
2021/01/17 11:01:10;;;;;;;33.85;4.45;;;;;;;7.08;100.00;101942.22;4807627;29;20055;-84
2021/01/17 11:03:38;;;;;;;20.42;5.80;;;;;;;6.99;100.00;101908.16;4810439;29;20030;-85
2021/01/17 11:06:08;;;;;;;30.83;6.60;;;;;;;6.76;100.00;101916.28;4808101;29;20034;-84
2021/01/17 11:08:39;;;;;;;20.13;4.32;;;;;;;6.76;100.00;101934.69;4806078;29;20038;-84
2021/01/17 11:11:04;;;;;;;19.15;3.97;;;;;;;6.60;100.00;101922.63;4799921;29;20041;-84
2021/01/17 11:13:30;;;;;;;30.33;4.57;;;;;;;6.62;100.00;101919.06;4809788;29;20030;-84
2021/01/17 11:16:00;;;;;;;24.90;4.45;;;;;;;6.61;100.00;101951.47;4803984;29;20033;-84
2021/01/17 11:18:26;;;;;;;36.75;5.07;;;;;;;6.67;100.00;101945.28;4831527;29;20061;-84
2021/01/17 11:20:58;;;;;;;31.17;5.05;;;;;;;6.65;100.00;101963.72;4807718;29;20022;-84
2021/01/17 11:23:25;;;;;;;23.40;5.53;;;;;;;6.50;100.00;101966.50;4814558;29;20108;-85
2021/01/17 11:26:05;;;;;;;27.50;4.10;;;;;;;6.09;100.00;101969.50;4805261;29;20403;-85
2021/01/17 11:28:31;;;;;;;18.10;3.17;;;;;;;5.78;100.00;101948.69;4826772;29;20030;-85
2021/01/17 11:31:13;;;;;;;27.02;6.88;;;;;;;5.83;100.00;101959.16;4825372;29;20095;-84
2021/01/17 11:33:39;;;;;;;19.48;3.85;;;;;;;5.96;100.00;101971.31;4806104;29;20034;-85
2021/01/17 11:36:05;;;;;;;33.78;5.53;;;;;;;6.06;100.00;101986.13;4812731;29;20348;-85
2021/01/17 11:38:53;;;;;;;17.08;3.00;;;;;;;6.07;100.00;101981.72;4809077;29;20039;-84
2021/01/17 11:41:20;;;;;;;18.30;3.72;;;;;;;5.96;100.00;101969.56;4805455;29;20030;-84